Time;durP1;ratioP1;P1;durP2;ratioP2;P2;SDS_P1;SDS_P2;PMS_P1;PMS_P2;Temp;Humidity;BMP_temperature;BMP_pressure;BME280_temperature;BME280_humidity;BME280_pressure;Samples;Min_cycle;Max_cycle;Signal;HPM_P1;HPM_P2
2022/06/07 00:01:30;;;;;;;1.00;0.70;;;14.00;99.90;;;;;;4989173;28;20132;-68
2022/06/07 00:03:57;;;;;;;0.60;0.60;;;14.00;99.90;;;;;;4996038;28;20625;-68
2022/06/07 00:06:24;;;;;;;0.60;0.60;;;13.90;99.90;;;;;;4985035;28;20398;-68
2022/06/07 00:08:51;;;;;;;0.60;0.60;;;13.90;99.90;;;;;;4999557;28;20141;-68
2022/06/07 00:11:18;;;;;;;0.50;0.43;;;13.90;99.90;;;;;;5000079;28;20551;-68
2022/06/07 00:13:46;;;;;;;0.70;0.60;;;13.90;99.90;;;;;;4982266;28;20130;-68
2022/06/07 00:16:14;;;;;;;1.33;0.70;;;13.90;99.90;;;;;;4984230;28;20553;-68
2022/06/07 00:18:41;;;;;;;0.90;0.70;;;13.90;99.90;;;;;;4985493;28;20108;-68
2022/06/07 00:21:07;;;;;;;1.25;0.93;;;13.80;99.90;;;;;;4956504;28;20104;-69
2022/06/07 00:23:34;;;;;;;0.73;0.68;;;13.70;99.90;;;;;;5002612;28;20124;-68
2022/06/07 00:26:01;;;;;;;0.63;0.63;;;13.70;99.90;;;;;;5002561;28;20045;-68
2022/06/07 00:28:28;;;;;;;0.52;0.52;;;13.60;99.90;;;;;;4946444;28;20489;-68
2022/06/07 00:30:55;;;;;;;0.70;0.60;;;13.60;99.90;;;;;;4968932;28;20054;-68
2022/06/07 00:33:22;;;;;;;1.05;0.98;;;13.50;99.90;;;;;;5000676;28;20124;-68
2022/06/07 00:35:48;;;;;;;0.90;0.60;;;13.50;99.90;;;;;;4983258;28;20979;-68
2022/06/07 00:38:15;;;;;;;0.98;0.80;;;13.40;99.90;;;;;;4983237;28;20558;-68
2022/06/07 00:40:43;;;;;;;0.95;0.70;;;13.30;99.90;;;;;;4993934;28;20182;-68
2022/06/07 00:43:10;;;;;;;0.70;0.70;;;13.20;99.90;;;;;;4983093;28;20082;-68
2022/06/07 00:45:38;;;;;;;0.95;0.73;;;13.10;99.90;;;;;;4983591;28;20058;-68
2022/06/07 00:48:05;;;;;;;0.68;0.60;;;13.10;99.90;;;;;;4983804;28;20111;-68
2022/06/07 00:50:36;;;;;;;1.25;0.68;;;13.00;99.90;;;;;;4983875;28;20085;-68
2022/06/07 00:53:03;;;;;;;1.20;0.68;;;12.90;99.90;;;;;;5000886;28;20093;-68
2022/06/07 00:55:30;;;;;;;0.70;0.57;;;12.80;99.90;;;;;;4982988;28;20133;-68
2022/06/07 00:57:57;;;;;;;0.70;0.70;;;12.80;99.90;;;;;;4948588;28;20129;-68
2022/06/07 01:00:24;;;;;;;0.60;0.60;;;12.80;99.90;;;;;;4972979;28;20124;-68
2022/06/07 01:02:51;;;;;;;0.82;0.70;;;12.70;99.90;;;;;;4974115;28;20173;-68
2022/06/07 01:05:18;;;;;;;0.70;0.50;;;12.60;99.90;;;;;;5001157;28;20104;-68
2022/06/07 01:10:46;;;;;;;0.63;0.60;;;12.50;99.90;;;;;;4992671;28;20042;-68
2022/06/07 01:13:17;;;;;;;0.50;0.50;;;12.50;99.90;;;;;;5001012;28;20136;-68
2022/06/07 01:15:45;;;;;;;1.38;0.80;;;12.40;99.90;;;;;;4954937;28;20327;-68
2022/06/07 01:18:12;;;;;;;0.68;0.68;;;12.40;99.90;;;;;;4985012;28;20134;-68
2022/06/07 01:20:40;;;;;;;1.00;0.60;;;12.30;99.90;;;;;;4985624;28;20445;-68
2022/06/07 01:23:07;;;;;;;0.55;0.55;;;12.30;99.90;;;;;;4985487;28;20057;-68
2022/06/07 01:25:34;;;;;;;0.63;0.50;;;12.30;99.90;;;;;;4986930;28;20108;-68
2022/06/07 01:28:01;;;;;;;0.57;0.57;;;12.20;99.90;;;;;;4971213;28;20137;-67
2022/06/07 01:30:28;;;;;;;1.00;0.80;;;12.20;99.90;;;;;;4992629;28;20133;-67
2022/06/07 01:32:55;;;;;;;0.80;0.70;;;12.20;99.90;;;;;;4980669;28;20046;-68
2022/06/07 01:35:21;;;;;;;0.82;0.60;;;12.10;99.90;;;;;;4990845;28;20136;-68
2022/06/07 01:37:48;;;;;;;0.80;0.80;;;12.10;99.90;;;;;;5001861;28;20193;-68
2022/06/07 01:43:00;;;;;;;0.63;0.60;;;12.00;99.90;;;;;;4987546;28;20158;-68
2022/06/07 01:45:27;;;;;;;0.57;0.57;;;12.00;99.90;;;;;;5001577;28;20050;-68
2022/06/07 01:47:54;;;;;;;1.10;0.85;;;11.90;99.90;;;;;;4987779;28;20601;-68
2022/06/07 01:50:21;;;;;;;0.93;0.75;;;11.90;99.90;;;;;;4971628;28;20074;-68
2022/06/07 01:52:47;;;;;;;0.60;0.60;;;11.90;99.90;;;;;;4989942;28;20086;-68
2022/06/07 01:55:14;;;;;;;0.90;0.70;;;11.80;99.90;;;;;;5003287;28;20643;-68
2022/06/07 01:57:41;;;;;;;0.95;0.77;;;11.80;99.90;;;;;;4991620;28;20210;-68
2022/06/07 02:00:08;;;;;;;0.68;0.50;;;11.80;99.90;;;;;;4996385;28;20161;-68
2022/06/07 02:02:35;;;;;;;0.80;0.60;;;11.70;99.90;;;;;;4995054;28;20181;-68
2022/06/07 02:05:02;;;;;;;1.20;0.82;;;11.70;99.90;;;;;;5004982;28;20054;-67
2022/06/07 02:07:28;;;;;;;0.90;0.70;;;11.70;99.90;;;;;;4996707;28;20557;-68
2022/06/07 02:09:55;;;;;;;0.90;0.63;;;11.60;99.90;;;;;;5006037;28;20056;-68
2022/06/07 02:12:22;;;;;;;0.55;0.50;;;11.60;99.90;;;;;;4998877;28;20120;-68
2022/06/07 02:14:49;;;;;;;1.23;0.90;;;11.50;99.90;;;;;;4987497;28;20454;-68
2022/06/07 02:17:15;;;;;;;0.70;0.68;;;11.50;99.90;;;;;;4992552;28;20125;-68
2022/06/07 02:19:44;;;;;;;1.95;1.10;;;11.40;99.90;;;;;;4960886;28;20624;-68
2022/06/07 02:22:11;;;;;;;1.17;0.82;;;11.30;99.90;;;;;;4999580;28;20188;-69
2022/06/07 02:24:39;;;;;;;1.10;0.70;;;11.30;99.90;;;;;;4970867;28;20136;-68
2022/06/07 02:27:16;;;;;;;0.80;0.80;;;11.30;99.90;;;;;;4989939;28;20077;-69
2022/06/07 02:29:45;;;;;;;0.70;0.70;;;11.30;99.90;;;;;;4966103;28;20589;-68
2022/06/07 02:32:26;;;;;;;1.08;0.80;;;11.20;99.90;;;;;;4971509;28;20141;-69
2022/06/07 02:34:56;;;;;;;0.77;0.60;;;11.20;99.90;;;;;;4970589;28;20085;-68
2022/06/07 02:37:23;;;;;;;0.90;0.73;;;11.20;99.90;;;;;;4967750;28;20073;-68
2022/06/07 02:39:50;;;;;;;0.50;0.50;;;11.10;99.90;;;;;;4972967;28;20085;-68
2022/06/07 02:42:17;;;;;;;0.70;0.68;;;11.10;99.90;;;;;;4964747;28;20088;-68
2022/06/07 02:44:44;;;;;;;1.15;0.90;;;11.10;99.90;;;;;;5006020;28;20523;-68
2022/06/07 02:47:10;;;;;;;0.82;0.60;;;11.00;99.90;;;;;;5003447;28;20445;-68
2022/06/07 02:49:37;;;;;;;0.80;0.80;;;11.00;99.90;;;;;;5007231;28;20060;-68
2022/06/07 02:52:04;;;;;;;1.10;0.82;;;10.90;99.90;;;;;;4998785;28;20164;-68
2022/06/07 02:54:36;;;;;;;0.85;0.80;;;10.90;99.90;;;;;;5006951;28;20050;-68
2022/06/07 02:57:03;;;;;;;1.00;0.75;;;10.80;99.90;;;;;;4988914;28;20096;-69
2022/06/07 02:59:30;;;;;;;1.40;0.77;;;10.80;99.90;;;;;;5005649;28;20584;-68
2022/06/07 03:01:57;;;;;;;1.08;0.70;;;10.70;99.90;;;;;;5004410;28;20137;-69
2022/06/07 03:04:23;;;;;;;1.10;0.90;;;10.70;99.90;;;;;;4979572;28;20145;-69
2022/06/07 03:06:50;;;;;;;0.82;0.63;;;10.60;99.90;;;;;;4970152;28;20086;-68
2022/06/07 03:09:17;;;;;;;1.02;0.82;;;10.70;99.90;;;;;;4987201;28;20529;-68
2022/06/07 03:11:44;;;;;;;1.35;0.80;;;10.60;99.90;;;;;;4980065;28;20049;-68
2022/06/07 03:14:10;;;;;;;0.65;0.65;;;10.60;99.90;;;;;;5006226;28;20100;-69
2022/06/07 03:16:37;;;;;;;1.05;0.90;;;10.50;99.90;;;;;;5006089;28;20050;-69
2022/06/07 03:19:04;;;;;;;0.82;0.70;;;10.50;99.90;;;;;;5006370;28;20049;-69
2022/06/07 03:21:31;;;;;;;0.90;0.77;;;10.40;99.90;;;;;;4987381;28;20081;-68
2022/06/07 03:23:58;;;;;;;0.70;0.68;;;10.50;99.90;;;;;;5006151;28;20148;-68
2022/06/07 03:26:24;;;;;;;1.15;0.80;;;10.40;99.90;;;;;;5006575;28;20124;-68
2022/06/07 03:28:51;;;;;;;0.93;0.60;;;10.40;99.90;;;;;;5004911;28;20433;-69
2022/06/07 03:31:18;;;;;;;0.65;0.65;;;10.40;99.90;;;;;;5000530;28;20573;-68
2022/06/07 03:33:46;;;;;;;1.10;0.77;;;10.40;99.90;;;;;;4985845;28;20058;-68
2022/06/07 03:36:20;;;;;;;0.98;0.70;;;10.40;99.90;;;;;;4989170;28;20046;-68
2022/06/07 03:38:47;;;;;;;0.77;0.77;;;10.30;99.90;;;;;;4971875;28;20139;-68
2022/06/07 03:41:16;;;;;;;1.00;0.70;;;10.30;99.90;;;;;;5002798;28;20085;-68
2022/06/07 03:43:43;;;;;;;0.85;0.55;;;10.30;99.90;;;;;;4996600;28;20142;-68
2022/06/07 03:46:15;;;;;;;0.77;0.77;;;10.20;99.90;;;;;;4988002;28;20046;-68
2022/06/07 03:48:42;;;;;;;0.73;0.73;;;10.20;99.90;;;;;;4985931;28;20081;-68
2022/06/07 03:51:10;;;;;;;0.60;0.60;;;10.20;99.90;;;;;;4999430;28;20651;-68
2022/06/07 03:53:36;;;;;;;0.73;0.73;;;10.20;99.90;;;;;;4971752;28;20054;-68
2022/06/07 03:56:08;;;;;;;2.25;0.80;;;10.10;99.90;;;;;;5006780;28;20512;-68
2022/06/07 03:58:34;;;;;;;0.60;0.60;;;10.10;99.90;;;;;;4994227;28;20136;-68
2022/06/07 04:01:02;;;;;;;0.88;0.57;;;10.10;99.90;;;;;;4991956;28;20163;-68
2022/06/07 04:03:29;;;;;;;0.60;0.60;;;10.00;99.90;;;;;;5005524;28;20224;-68
2022/06/07 04:05:56;;;;;;;0.80;0.70;;;10.10;99.90;;;;;;4987908;28;20412;-68
2022/06/07 04:08:23;;;;;;;0.60;0.57;;;10.10;99.90;;;;;;4963999;28;20042;-67
2022/06/07 04:10:53;;;;;;;0.70;0.70;;;10.10;99.90;;;;;;4994936;28;20074;-68
2022/06/07 04:13:21;;;;;;;0.77;0.68;;;10.10;99.90;;;;;;4996588;28;20049;-68
2022/06/07 04:15:48;;;;;;;1.10;0.80;;;10.00;99.90;;;;;;4987161;28;20442;-68
2022/06/07 04:18:15;;;;;;;0.75;0.68;;;10.00;99.90;;;;;;4978997;28;20682;-68
2022/06/07 04:20:42;;;;;;;0.70;0.65;;;10.00;99.90;;;;;;4971394;28;20172;-68
2022/06/07 04:23:13;;;;;;;0.60;0.55;;;10.10;99.90;;;;;;4958009;28;20105;-68
2022/06/07 04:25:41;;;;;;;0.88;0.65;;;10.10;99.90;;;;;;4987633;28;20132;-68
2022/06/07 04:28:08;;;;;;;0.90;0.60;;;10.10;99.90;;;;;;5004283;28;20572;-68
2022/06/07 04:30:35;;;;;;;0.90;0.60;;;10.10;99.90;;;;;;5002691;28;20611;-68
2022/06/07 04:33:02;;;;;;;0.90;0.50;;;10.10;99.90;;;;;;4996476;28;20108;-68
2022/06/07 04:35:28;;;;;;;1.30;0.50;;;10.20;99.90;;;;;;5004949;28;20431;-68
2022/06/07 04:37:55;;;;;;;0.60;0.60;;;10.20;99.90;;;;;;4970261;28;20124;-68
2022/06/07 04:40:22;;;;;;;0.60;0.60;;;10.20;99.90;;;;;;4987577;28;20479;-68
2022/06/07 04:42:49;;;;;;;1.75;1.13;;;10.20;99.90;;;;;;4988903;28;20161;-68
2022/06/07 04:45:16;;;;;;;2.28;1.40;;;10.20;99.90;;;;;;5003439;28;20054;-68
2022/06/07 04:47:44;;;;;;;2.00;1.67;;;10.20;99.90;;;;;;4977242;28;20120;-67
2022/06/07 04:50:13;;;;;;;2.15;1.60;;;10.20;99.90;;;;;;4964121;28;20089;-68
2022/06/07 04:52:39;;;;;;;1.90;1.67;;;10.30;99.90;;;;;;4988700;28;20077;-69
2022/06/07 04:55:06;;;;;;;1.50;1.33;;;10.30;99.90;;;;;;5001276;28;20084;-69
2022/06/07 04:57:33;;;;;;;1.85;1.20;;;10.30;99.90;;;;;;4998922;28;20073;-69
2022/06/07 05:00:00;;;;;;;1.98;1.15;;;10.40;99.90;;;;;;4982771;28;20398;-69
2022/06/07 05:02:27;;;;;;;1.55;0.98;;;10.40;99.90;;;;;;4990332;28;20846;-70
2022/06/07 05:04:53;;;;;;;1.35;0.90;;;10.50;99.90;;;;;;4956525;28;20169;-69
2022/06/07 05:07:20;;;;;;;0.93;0.70;;;10.60;99.90;;;;;;4967800;28;20081;-69
2022/06/07 05:09:48;;;;;;;1.10;0.77;;;10.60;99.90;;;;;;4997374;28;20085;-69
2022/06/07 05:12:15;;;;;;;0.90;0.65;;;10.60;99.90;;;;;;4995132;28;20474;-69
2022/06/07 05:14:44;;;;;;;0.75;0.70;;;10.70;99.90;;;;;;4985310;28;20050;-69
2022/06/07 05:17:10;;;;;;;0.98;0.70;;;10.70;99.90;;;;;;5000118;28;22463;-69
2022/06/07 05:19:37;;;;;;;0.60;0.60;;;10.80;99.90;;;;;;4959972;28;20128;-69
2022/06/07 05:22:04;;;;;;;0.55;0.55;;;10.80;99.90;;;;;;4973538;28;20133;-69
2022/06/07 05:24:31;;;;;;;0.45;0.45;;;10.90;99.90;;;;;;4981883;28;20137;-69
2022/06/07 05:26:59;;;;;;;0.68;0.68;;;11.00;99.90;;;;;;4964697;28;20673;-68
2022/06/07 05:29:28;;;;;;;1.05;0.82;;;11.00;99.90;;;;;;4972348;28;20077;-69
2022/06/07 05:31:55;;;;;;;0.75;0.40;;;11.10;99.90;;;;;;4979039;28;20257;-69
2022/06/07 05:34:22;;;;;;;0.57;0.40;;;11.10;99.90;;;;;;5003945;28;20078;-69
2022/06/07 05:36:48;;;;;;;0.47;0.47;;;11.20;99.90;;;;;;4997775;28;20049;-69
2022/06/07 05:39:20;;;;;;;0.63;0.60;;;11.30;99.90;;;;;;4983191;28;20894;-67
2022/06/07 05:41:47;;;;;;;0.52;0.50;;;11.40;99.90;;;;;;4962513;28;20554;-67
2022/06/07 05:44:14;;;;;;;0.40;0.40;;;11.50;99.90;;;;;;4959342;28;20073;-68
2022/06/07 05:46:41;;;;;;;0.30;0.30;;;11.60;99.90;;;;;;4989729;28;20189;-67
2022/06/07 05:49:09;;;;;;;0.40;0.40;;;11.70;99.90;;;;;;4999935;28;20136;-68
2022/06/07 05:51:37;;;;;;;0.55;0.50;;;11.70;99.90;;;;;;4996715;28;20570;-68
2022/06/07 05:54:04;;;;;;;0.35;0.35;;;11.80;99.90;;;;;;4963171;28;20474;-67
2022/06/07 05:56:30;;;;;;;0.28;0.28;;;12.00;99.90;;;;;;4995941;28;20125;-67
2022/06/07 05:58:57;;;;;;;0.38;0.38;;;12.10;99.90;;;;;;4989144;28;20085;-68
2022/06/07 06:01:25;;;;;;;0.75;0.60;;;12.30;99.90;;;;;;4974870;28;20084;-67
2022/06/07 06:03:53;;;;;;;0.40;0.40;;;12.40;99.90;;;;;;5000443;28;20592;-67
2022/06/07 06:06:26;;;;;;;0.73;0.52;;;12.60;99.90;;;;;;5001728;28;20049;-67
2022/06/07 06:11:38;;;;;;;0.77;0.50;;;12.90;99.90;;;;;;4995682;28;20168;-67
2022/06/07 06:14:05;;;;;;;0.30;0.30;;;13.00;99.90;;;;;;5001535;28;20054;-67
2022/06/07 06:16:31;;;;;;;0.63;0.47;;;13.10;99.90;;;;;;5002282;28;20148;-67
2022/06/07 06:18:59;;;;;;;0.95;0.45;;;13.20;99.90;;;;;;4970571;28;20049;-67
2022/06/07 06:21:28;;;;;;;1.17;0.60;;;13.20;99.90;;;;;;4996367;28;20069;-67
2022/06/07 06:23:59;;;;;;;0.63;0.52;;;13.40;99.90;;;;;;4982481;28;20061;-68
2022/06/07 06:26:28;;;;;;;1.65;0.60;;;13.50;99.90;;;;;;4991257;28;20097;-67
2022/06/07 06:28:55;;;;;;;0.47;0.47;;;13.70;99.90;;;;;;4956880;28;20151;-67
2022/06/07 06:31:22;;;;;;;0.95;0.60;;;13.80;99.90;;;;;;4970831;28;20048;-67
2022/06/07 06:33:51;;;;;;;0.73;0.70;;;13.90;99.90;;;;;;5002305;28;20077;-67
2022/06/07 06:36:20;;;;;;;0.60;0.40;;;14.00;99.90;;;;;;4969247;28;20213;-67
2022/06/07 06:38:47;;;;;;;0.40;0.40;;;14.20;99.90;;;;;;4992035;28;20470;-67
2022/06/07 06:41:15;;;;;;;0.57;0.50;;;14.30;99.90;;;;;;4961824;28;20133;-67
2022/06/07 06:43:42;;;;;;;0.40;0.40;;;14.40;99.90;;;;;;4989054;28;20089;-67
2022/06/07 06:46:24;;;;;;;1.02;0.57;;;14.50;99.90;;;;;;4987074;28;20061;-67
2022/06/07 06:48:50;;;;;;;1.08;0.68;;;14.50;99.90;;;;;;4984755;28;20156;-67
2022/06/07 06:51:19;;;;;;;1.65;0.60;;;14.70;99.90;;;;;;4987857;28;20401;-67
2022/06/07 06:53:46;;;;;;;1.15;0.50;;;14.70;99.90;;;;;;4986857;28;20136;-67
2022/06/07 06:56:16;;;;;;;0.85;0.45;;;14.80;99.90;;;;;;4976326;28;20082;-67
2022/06/07 06:58:43;;;;;;;0.30;0.30;;;14.80;99.90;;;;;;4956578;28;20062;-67
2022/06/07 07:01:12;;;;;;;0.38;0.38;;;14.90;99.90;;;;;;4985649;28;20054;-67
2022/06/07 07:03:40;;;;;;;0.40;0.40;;;15.00;99.90;;;;;;4985334;28;20133;-67
2022/06/07 07:06:08;;;;;;;0.35;0.35;;;15.00;99.90;;;;;;4986181;28;20085;-68
2022/06/07 07:08:35;;;;;;;0.40;0.40;;;15.10;99.90;;;;;;4982841;28;20210;-68
2022/06/07 07:11:13;;;;;;;0.80;0.50;;;15.10;99.90;;;;;;4986776;28;20078;-67
2022/06/07 07:13:40;;;;;;;0.45;0.43;;;15.20;99.90;;;;;;4999007;28;20493;-67
2022/06/07 07:16:12;;;;;;;0.70;0.50;;;15.20;99.90;;;;;;4999230;28;20513;-67
2022/06/07 07:18:39;;;;;;;1.10;0.50;;;15.20;99.90;;;;;;4987145;28;20050;-67
2022/06/07 07:21:07;;;;;;;0.32;0.32;;;15.20;99.90;;;;;;4984089;28;20094;-67
2022/06/07 07:23:35;;;;;;;0.35;0.35;;;15.20;99.90;;;;;;4985765;28;20078;-67
2022/06/07 07:26:07;;;;;;;0.20;0.20;;;15.20;99.90;;;;;;5001454;28;20053;-67
2022/06/07 07:28:34;;;;;;;0.47;0.40;;;15.30;99.90;;;;;;4983644;28;20045;-68
2022/06/07 07:31:02;;;;;;;0.30;0.30;;;15.40;99.90;;;;;;4983852;28;20136;-68
2022/06/07 07:33:32;;;;;;;0.50;0.47;;;15.40;99.90;;;;;;4990530;28;20139;-68
2022/06/07 07:36:03;;;;;;;0.40;0.40;;;15.50;99.90;;;;;;5002382;28;20141;-68
2022/06/07 07:38:30;;;;;;;0.35;0.22;;;15.50;99.90;;;;;;5001908;28;20053;-68
2022/06/07 07:40:57;;;;;;;0.22;0.22;;;15.50;99.90;;;;;;4985122;28;20054;-68
2022/06/07 07:43:23;;;;;;;0.30;0.30;;;15.50;99.90;;;;;;5003600;28;20065;-68
2022/06/07 07:45:54;;;;;;;0.47;0.28;;;15.50;99.90;;;;;;5005039;28;20046;-68
2022/06/07 07:48:22;;;;;;;0.95;0.40;;;15.50;99.90;;;;;;5000989;28;20085;-68
2022/06/07 07:50:49;;;;;;;0.20;0.20;;;15.60;99.90;;;;;;4985160;28;20132;-68
2022/06/07 07:53:17;;;;;;;1.35;0.30;;;15.60;99.90;;;;;;5003961;28;20130;-68
2022/06/07 07:55:45;;;;;;;0.30;0.28;;;15.70;99.90;;;;;;4988330;28;20041;-68
2022/06/07 07:58:12;;;;;;;0.38;0.38;;;15.80;99.90;;;;;;4986861;28;20446;-68
2022/06/07 08:00:45;;;;;;;0.30;0.30;;;16.00;99.90;;;;;;4997882;28;20137;-68
2022/06/07 08:03:12;;;;;;;;;;;16.10;99.90;;;;;;4994361;28;20074;-68
2022/06/07 08:05:39;;;;;;;0.40;0.30;;;16.10;99.90;;;;;;4985518;28;19922;-68
2022/06/07 08:08:06;;;;;;;0.25;0.22;;;16.10;99.90;;;;;;4985153;28;20045;-68
2022/06/07 08:10:33;;;;;;;0.25;0.25;;;16.10;99.90;;;;;;4968293;28;20089;-68
2022/06/07 08:13:00;;;;;;;0.38;0.30;;;16.10;99.90;;;;;;4999340;28;20073;-69
2022/06/07 08:15:29;;;;;;;0.35;0.30;;;16.10;99.90;;;;;;4995058;28;20415;-68
2022/06/07 08:17:56;;;;;;;0.63;0.40;;;16.30;99.90;;;;;;4963458;28;20129;-68
2022/06/07 08:20:22;;;;;;;0.50;0.30;;;16.40;99.90;;;;;;4995839;28;20149;-68
2022/06/07 08:22:52;;;;;;;0.20;0.20;;;16.50;99.90;;;;;;4997586;28;20045;-69
2022/06/07 08:25:19;;;;;;;0.20;0.20;;;16.50;99.90;;;;;;4984648;28;20085;-69
2022/06/07 08:27:46;;;;;;;0.47;0.20;;;16.70;99.90;;;;;;4983222;28;20084;-68
2022/06/07 08:30:13;;;;;;;0.40;0.30;;;16.80;99.90;;;;;;5002517;28;20137;-68
2022/06/07 08:32:40;;;;;;;0.45;0.40;;;16.90;99.90;;;;;;4985672;28;20077;-67
2022/06/07 08:37:56;;;;;;;0.20;0.20;;;17.00;99.90;;;;;;4970041;28;20162;-67
2022/06/07 08:40:34;;;;;;;0.43;0.30;;;17.20;99.90;;;;;;4986543;28;20123;-67
2022/06/07 08:43:17;;;;;;;0.43;0.30;;;17.40;99.90;;;;;;4985902;28;20098;-68
2022/06/07 08:45:44;;;;;;;;;;;17.70;99.90;;;;;;4979481;28;20476;-68
2022/06/07 08:48:22;;;;;;;0.47;0.30;;;17.80;99.90;;;;;;4976946;28;19921;-67
2022/06/07 08:51:00;;;;;;;0.28;0.22;;;17.80;99.90;;;;;;4993819;28;20481;-68
2022/06/07 08:53:33;;;;;;;0.20;0.20;;;18.00;99.90;;;;;;4982711;28;20041;-75
2022/06/07 08:56:01;;;;;;;0.40;0.30;;;18.10;99.90;;;;;;4982269;28;20112;-68
2022/06/07 08:58:40;;;;;;;0.55;0.40;;;18.20;99.90;;;;;;4974554;28;20052;-67
2022/06/07 09:01:22;;;;;;;0.50;0.30;;;18.20;99.90;;;;;;4997239;28;20147;-68
2022/06/07 09:04:08;;;;;;;0.63;0.45;;;18.30;99.90;;;;;;4982680;28;20081;-67
2022/06/07 09:06:38;;;;;;;0.10;0.10;;;18.30;99.90;;;;;;5005565;28;20152;-71
2022/06/07 09:09:05;;;;;;;0.25;0.25;;;18.40;99.90;;;;;;4988650;28;20558;-71
2022/06/07 09:14:29;;;;;;;0.35;0.30;;;18.60;99.90;;;;;;5000341;28;20489;-66
2022/06/07 09:16:56;;;;;;;0.30;0.22;;;18.60;99.90;;;;;;4984588;28;20152;-67
2022/06/07 09:19:25;;;;;;;0.20;0.20;;;18.50;99.90;;;;;;4983229;28;20049;-69
2022/06/07 09:21:54;;;;;;;0.30;0.30;;;18.60;99.90;;;;;;4984927;28;20625;-68
2022/06/07 09:24:44;;;;;;;0.32;0.25;;;18.70;99.90;;;;;;4967099;28;20959;-68
2022/06/07 09:27:16;;;;;;;0.55;0.30;;;18.80;99.90;;;;;;4984970;28;20454;-69
2022/06/07 09:29:52;;;;;;;1.65;0.40;;;18.90;99.90;;;;;;4967107;28;20080;-68
2022/06/07 09:32:19;;;;;;;0.20;0.20;;;19.10;99.90;;;;;;4985485;28;20489;-68
2022/06/07 09:34:57;;;;;;;0.30;0.30;;;19.30;99.90;;;;;;4968760;28;20136;-68
2022/06/07 09:37:37;;;;;;;0.35;0.25;;;19.40;99.90;;;;;;4984326;28;20493;-66
2022/06/07 09:40:27;;;;;;;0.20;0.20;;;19.50;99.90;;;;;;4998287;28;20145;-69
2022/06/07 09:43:25;;;;;;;0.43;0.30;;;19.30;99.90;;;;;;5006179;28;20449;-66
2022/06/07 09:45:54;;;;;;;0.82;0.60;;;19.30;99.90;;;;;;4964862;28;20496;-67
2022/06/07 09:48:32;;;;;;;0.20;0.20;;;19.30;99.90;;;;;;5003388;28;20057;-68
2022/06/07 09:51:02;;;;;;;0.50;0.30;;;19.30;99.90;;;;;;4984792;28;20338;-68
2022/06/07 09:53:37;;;;;;;0.73;0.63;;;19.40;99.90;;;;;;5000697;28;20045;-68
2022/06/07 09:56:28;;;;;;;0.55;0.40;;;19.50;99.90;;;;;;4988628;28;20064;-69
2022/06/07 09:59:13;;;;;;;0.20;0.20;;;19.60;99.90;;;;;;4973842;28;20096;-68
2022/06/07 10:01:59;;;;;;;0.13;0.13;;;19.70;99.90;;;;;;4986221;28;20844;-68
2022/06/07 10:05:11;;;;;;;0.57;0.25;;;19.80;99.90;;;;;;4975072;28;20073;-69
2022/06/07 10:07:39;;;;;;;0.30;0.30;;;19.90;99.90;;;;;;4967093;28;20121;-69
2022/06/07 10:10:31;;;;;;;0.52;0.40;;;20.00;99.90;;;;;;4988769;28;20049;-72
2022/06/07 10:13:03;;;;;;;0.30;0.30;;;20.00;99.90;;;;;;5005336;28;20137;-67
2022/06/07 10:15:42;;;;;;;0.28;0.28;;;20.00;99.90;;;;;;5004482;28;20145;-68
2022/06/07 10:18:24;;;;;;;0.20;0.20;;;20.10;99.90;;;;;;4971773;28;20049;-68
2022/06/07 10:21:09;;;;;;;0.38;0.30;;;20.20;99.90;;;;;;5006437;28;20141;-75
2022/06/07 10:23:59;;;;;;;2.70;0.80;;;20.40;99.90;;;;;;4970480;28;20124;-67
2022/06/07 10:26:37;;;;;;;1.42;0.38;;;20.60;99.90;;;;;;5001635;28;20080;-67
2022/06/07 10:29:31;;;;;;;0.50;0.20;;;20.70;99.90;;;;;;4977453;28;20124;-67
2022/06/07 10:32:09;;;;;;;0.38;0.30;;;20.90;99.90;;;;;;4991244;28;20127;-69
2022/06/07 10:34:46;;;;;;;0.60;0.50;;;21.10;99.90;;;;;;5007233;28;20080;-69
2022/06/07 10:37:31;;;;;;;1.00;0.40;;;21.20;99.90;;;;;;4970355;28;20085;-67
2022/06/07 10:40:13;;;;;;;0.22;0.22;;;21.20;99.90;;;;;;5002805;28;20137;-69
2022/06/07 10:42:50;;;;;;;0.63;0.30;;;21.30;99.90;;;;;;4998656;28;20045;-69
2022/06/07 10:45:41;;;;;;;0.20;0.20;;;21.40;99.90;;;;;;4966479;28;20137;-69
2022/06/07 10:48:20;;;;;;;0.20;0.20;;;21.50;99.90;;;;;;4983214;28;20453;-67
2022/06/07 10:52:20;;;;;;;0.32;0.32;;;21.60;99.90;;;;;;4970423;28;20075;-73
2022/06/07 10:54:02;;;;;;;0.30;0.30;;;21.50;99.90;;;;;;4991546;28;20596;-67
2022/06/07 10:56:35;;;;;;;0.28;0.20;;;21.20;99.90;;;;;;4988564;28;20053;-67
2022/06/07 10:59:02;;;;;;;;;;;21.20;99.90;;;;;;4969979;28;20112;-66
2022/06/07 11:02:24;;;;;;;0.20;0.20;;;21.10;99.90;;;;;;5003444;28;19998;-67
2022/06/07 11:10:35;;;;;;;0.30;0.30;;;21.30;99.90;;;;;;4992192;28;20105;-68
2022/06/07 11:13:31;;;;;;;0.30;0.30;;;21.40;99.90;;;;;;4988594;28;20068;-67
2022/06/07 11:16:07;;;;;;;0.60;0.20;;;21.40;99.90;;;;;;4966843;28;20208;-71
2022/06/07 11:18:34;;;;;;;0.30;0.30;;;21.40;99.90;;;;;;4988592;28;20081;-70
2022/06/07 11:21:01;;;;;;;0.22;0.22;;;21.20;99.90;;;;;;4987859;28;20132;-67
2022/06/07 11:23:42;;;;;;;0.30;0.30;;;21.20;99.90;;;;;;5003977;28;20506;-68
2022/06/07 11:26:15;;;;;;;0.35;0.30;;;21.10;99.90;;;;;;5000735;28;20121;-67
2022/06/07 11:28:43;;;;;;;0.52;0.40;;;21.00;99.90;;;;;;4979162;28;20470;-67
2022/06/07 11:31:35;;;;;;;0.38;0.30;;;21.10;99.90;;;;;;4977803;28;20108;-67
2022/06/07 11:34:22;;;;;;;0.30;0.20;;;21.10;99.90;;;;;;4993098;28;21111;-67
2022/06/07 11:36:49;;;;;;;0.40;0.30;;;21.20;99.90;;;;;;4990711;28;20157;-67
2022/06/07 11:39:33;;;;;;;0.35;0.30;;;21.20;99.90;;;;;;4965404;28;20129;-75
2022/06/07 11:42:16;;;;;;;0.25;0.20;;;21.30;99.90;;;;;;4986287;28;20506;-73
2022/06/07 11:44:42;;;;;;;;;;;21.40;99.90;;;;;;5002584;28;20119;-70
2022/06/07 11:47:09;;;;;;;0.50;0.50;;;21.50;99.90;;;;;;5001558;28;19972;-66
2022/06/07 11:49:41;;;;;;;0.28;0.28;;;21.40;99.90;;;;;;5001471;28;20156;-66
2022/06/07 11:52:13;;;;;;;0.90;0.50;;;21.40;99.90;;;;;;4985515;28;20123;-66
2022/06/07 11:54:48;;;;;;;0.28;0.25;;;21.50;99.90;;;;;;5000213;28;20077;-66
2022/06/07 11:57:40;;;;;;;0.38;0.30;;;21.40;99.90;;;;;;4986727;28;20046;-66
2022/06/07 12:00:19;;;;;;;0.30;0.30;;;21.40;99.90;;;;;;4968546;28;20054;-66
2022/06/07 12:03:00;;;;;;;0.20;0.20;;;21.50;99.90;;;;;;5003430;28;20326;-66
2022/06/07 12:05:29;;;;;;;1.25;0.80;;;21.60;99.90;;;;;;5003256;28;20555;-66
2022/06/07 12:08:01;;;;;;;1.08;0.63;;;21.60;99.90;;;;;;4966018;28;20092;-67
2022/06/07 12:10:37;;;;;;;1.15;0.75;;;21.60;99.90;;;;;;4985535;28;20050;-67
2022/06/07 12:13:16;;;;;;;1.27;0.50;;;21.60;99.90;;;;;;4987434;28;21116;-81
2022/06/07 12:15:50;;;;;;;0.80;0.50;;;21.60;99.90;;;;;;4971884;28;20068;-70
2022/06/07 12:18:24;;;;;;;0.82;0.60;;;21.40;99.90;;;;;;4987754;28;20077;-72
2022/06/07 12:20:57;;;;;;;0.93;0.63;;;21.20;99.90;;;;;;4983606;28;20056;-73
2022/06/07 12:23:29;;;;;;;0.30;0.30;;;21.00;99.90;;;;;;4967273;28;20165;-78
2022/06/07 12:26:19;;;;;;;0.35;0.30;;;20.70;99.90;;;;;;4985114;28;20053;-81
2022/06/07 12:29:11;;;;;;;0.25;0.22;;;20.60;99.90;;;;;;4975702;28;20141;-68
2022/06/07 12:31:44;;;;;;;0.73;0.40;;;20.20;99.90;;;;;;4997705;28;20081;-74
2022/06/07 12:34:31;;;;;;;0.50;0.38;;;19.80;99.90;;;;;;4963380;28;20101;-67
2022/06/07 12:37:10;;;;;;;0.30;0.30;;;19.70;99.90;;;;;;4969392;28;20132;-67
2022/06/07 12:39:49;;;;;;;0.43;0.30;;;19.60;99.90;;;;;;5003930;28;20100;-70
2022/06/07 12:42:17;;;;;;;0.38;0.38;;;19.60;99.90;;;;;;4985503;28;20108;-70
2022/06/07 12:44:56;;;;;;;0.30;0.30;;;19.70;99.90;;;;;;4981739;28;20049;-68
2022/06/07 12:47:27;;;;;;;0.45;0.40;;;19.60;99.90;;;;;;4968592;28;20054;-68
2022/06/07 12:49:54;;;;;;;0.30;0.17;;;19.60;99.90;;;;;;4980511;28;20753;-67
2022/06/07 12:52:22;;;;;;;0.30;0.28;;;19.60;99.90;;;;;;4978090;28;20092;-68
2022/06/07 12:54:51;;;;;;;0.60;0.30;;;19.70;99.90;;;;;;4993103;28;20101;-68
2022/06/07 12:57:29;;;;;;;0.68;0.30;;;19.70;99.90;;;;;;4974627;28;20308;-73
2022/06/07 13:00:11;;;;;;;0.38;0.28;;;19.70;99.90;;;;;;4975165;28;20571;-77
2022/06/07 13:03:02;;;;;;;0.20;0.20;;;19.80;99.90;;;;;;4959651;28;20069;-74
2022/06/07 13:05:34;;;;;;;0.40;0.30;;;19.80;99.90;;;;;;4972639;28;20132;-67
2022/06/07 13:08:02;;;;;;;0.10;0.10;;;19.80;99.90;;;;;;4996955;28;20436;-68
2022/06/07 13:10:33;;;;;;;0.10;0.10;;;19.80;99.90;;;;;;4995610;28;20088;-78
2022/06/07 13:13:05;;;;;;;0.10;0.10;;;19.90;99.90;;;;;;4979681;28;20528;-73
2022/06/07 13:15:35;;;;;;;0.20;0.20;;;20.00;99.90;;;;;;4996936;28;20144;-67
2022/06/07 13:18:05;;;;;;;0.20;0.20;;;20.00;99.90;;;;;;4965927;28;20062;-79
2022/06/07 13:20:41;;;;;;;0.32;0.20;;;20.00;99.90;;;;;;4971938;28;20144;-77
2022/06/07 13:23:25;;;;;;;0.20;0.20;;;19.90;99.90;;;;;;4961019;28;20340;-67
2022/06/07 13:26:12;;;;;;;0.20;0.20;;;19.90;99.90;;;;;;4960443;28;20058;-82
2022/06/07 13:28:39;;;;;;;0.20;0.10;;;19.80;99.90;;;;;;4955479;28;20121;-70